Time;durP1;ratioP1;P1;durP2;ratioP2;P2;SDS_P1;SDS_P2;PMS_P1;PMS_P2;Temp;Humidity;BMP_temperature;BMP_pressure;BME280_temperature;BME280_humidity;BME280_pressure;Samples;Min_cycle;Max_cycle;Signal;HPM_P1;HPM_P2
2022/07/24 00:01:26;;;;;;;;;;;;;;;28.06;37.80;100769.16;5067847;28;985;-46
2022/07/24 00:03:51;;;;;;;;;;;;;;;28.01;37.91;100767.00;5070433;28;997;-46
2022/07/24 00:06:16;;;;;;;;;;;;;;;28.07;37.56;100768.13;5067585;28;1044;-45
2022/07/24 00:08:41;;;;;;;;;;;;;;;27.99;38.09;100761.78;5071516;28;1177;-46
2022/07/24 00:11:07;;;;;;;;;;;;;;;28.12;38.30;100773.81;5074209;28;1056;-45
2022/07/24 00:13:32;;;;;;;;;;;;;;;28.05;38.07;100760.19;5071983;28;1983;-45
2022/07/24 00:15:57;;;;;;;;;;;;;;;28.05;38.39;100762.06;5066461;28;1032;-46
2022/07/24 00:18:23;;;;;;;;;;;;;;;28.11;38.10;100770.25;5069785;28;1172;-45
2022/07/24 00:20:48;;;;;;;;;;;;;;;28.06;38.30;100769.16;5070474;28;1172;-46
2022/07/24 00:23:13;;;;;;;;;;;;;;;28.08;38.61;100767.09;5049995;28;1056;-45
2022/07/24 00:25:38;;;;;;;;;;;;;;;28.00;38.68;100759.94;5067015;28;1135;-46
2022/07/24 00:28:04;;;;;;;;;;;;;;;28.02;38.86;100762.44;5075449;28;1036;-45
2022/07/24 00:30:29;;;;;;;;;;;;;;;28.04;38.62;100763.94;5069732;28;1005;-46
2022/07/24 00:32:54;;;;;;;;;;;;;;;28.11;38.01;100762.13;5062591;28;1001;-48
2022/07/24 00:35:20;;;;;;;;;;;;;;;28.04;38.26;100750.41;5070893;28;1894;-45
2022/07/24 00:37:48;;;;;;;;;;;;;;;27.99;38.59;100750.16;5065052;28;1174;-46
2022/07/24 00:40:15;;;;;;;;;;;;;;;28.07;38.72;100746.50;5062794;28;977;-45
2022/07/24 00:42:40;;;;;;;;;;;;;;;28.02;38.51;100736.25;5070144;28;1162;-47
2022/07/24 00:45:06;;;;;;;;;;;;;;;28.09;38.59;100737.16;5055483;28;1131;-45
2022/07/24 00:47:31;;;;;;;;;;;;;;;28.04;38.39;100734.19;5073247;28;1060;-46
2022/07/24 00:49:57;;;;;;;;;;;;;;;28.06;38.19;100732.13;5072889;28;843;-46
2022/07/24 00:52:22;;;;;;;;;;;;;;;28.03;38.88;100739.81;5074820;28;1084;-46
2022/07/24 00:54:47;;;;;;;;;;;;;;;28.03;38.58;100737.09;5071626;28;1964;-46
2022/07/24 00:57:12;;;;;;;;;;;;;;;28.08;38.96;100737.34;5067305;28;1072;-45
2022/07/24 00:59:38;;;;;;;;;;;;;;;28.08;38.21;100718.41;5067760;28;1050;-46
2022/07/24 01:02:03;;;;;;;;;;;;;;;28.11;38.37;100723.47;5067477;28;1205;-45
2022/07/24 01:04:29;;;;;;;;;;;;;;;28.19;38.43;100717.09;5066154;28;1044;-46
2022/07/24 01:06:54;;;;;;;;;;;;;;;28.12;38.31;100714.31;5068226;28;1064;-46
2022/07/24 01:09:19;;;;;;;;;;;;;;;28.05;38.82;100710.69;5053993;28;1138;-45
2022/07/24 01:11:45;;;;;;;;;;;;;;;28.01;38.77;100712.91;5062408;28;1151;-46
2022/07/24 01:14:11;;;;;;;;;;;;;;;28.03;38.85;100708.16;5057810;28;1910;-47
2022/07/24 01:16:36;;;;;;;;;;;;;;;28.07;38.67;100716.75;5073471;28;1234;-46
2022/07/24 01:19:02;;;;;;;;;;;;;;;28.06;38.74;100707.78;5062786;28;1068;-46
2022/07/24 01:21:27;;;;;;;;;;;;;;;28.16;38.77;100704.78;5062848;28;965;-45
2022/07/24 01:23:52;;;;;;;;;;;;;;;28.15;38.18;100707.66;5071432;28;1202;-46
2022/07/24 01:26:18;;;;;;;;;;;;;;;28.10;38.78;100698.28;5069064;28;1024;-46
2022/07/24 01:28:43;;;;;;;;;;;;;;;28.09;38.67;100706.59;5056622;28;1033;-45
2022/07/24 01:31:08;;;;;;;;;;;;;;;28.12;38.72;100706.19;5074235;28;1139;-45
2022/07/24 01:33:34;;;;;;;;;;;;;;;28.06;38.15;100696.16;5068342;28;1906;-46
2022/07/24 01:35:59;;;;;;;;;;;;;;;28.18;38.38;100697.31;5066000;28;981;-45
2022/07/24 01:38:24;;;;;;;;;;;;;;;28.16;38.38;100699.38;5067000;28;1032;-45
2022/07/24 01:40:50;;;;;;;;;;;;;;;28.17;38.33;100694.81;5064261;28;1087;-45
2022/07/24 01:43:15;;;;;;;;;;;;;;;28.17;37.93;100690.25;5068517;28;1060;-45
2022/07/24 01:45:40;;;;;;;;;;;;;;;28.13;38.77;100688.13;5072326;28;1012;-45
2022/07/24 01:48:06;;;;;;;;;;;;;;;28.03;38.29;100683.03;5069895;28;1183;-45
2022/07/24 01:50:31;;;;;;;;;;;;;;;28.07;38.43;100682.44;5067901;28;1024;-46
2022/07/24 01:52:57;;;;;;;;;;;;;;;28.08;38.62;100684.09;5072661;28;1214;-45
2022/07/24 01:55:22;;;;;;;;;;;;;;;28.09;38.25;100682.25;5073963;28;1897;-45
2022/07/24 01:57:48;;;;;;;;;;;;;;;28.13;38.07;100680.81;5074366;28;1178;-45
2022/07/24 02:00:13;;;;;;;;;;;;;;;28.10;38.91;100675.78;5062382;28;1083;-45
2022/07/24 02:02:42;;;;;;;;;;;;;;;28.07;38.83;100676.19;5055998;28;1001;-45
2022/07/24 02:05:07;;;;;;;;;;;;;;;28.12;38.61;100679.16;5064890;28;1143;-46
2022/07/24 02:07:32;;;;;;;;;;;;;;;28.06;39.04;100680.75;5070487;28;1095;-44
2022/07/24 02:09:58;;;;;;;;;;;;;;;28.08;38.60;100672.44;5070858;28;1237;-45
2022/07/24 02:12:23;;;;;;;;;;;;;;;28.12;38.55;100681.84;5063749;28;1041;-45
2022/07/24 02:14:48;;;;;;;;;;;;;;;28.17;38.49;100676.72;5072469;28;1905;-46
2022/07/24 02:17:14;;;;;;;;;;;;;;;28.27;37.92;100678.25;5070915;28;1008;-46
2022/07/24 02:19:39;;;;;;;;;;;;;;;28.20;38.31;100678.19;5068274;28;1078;-46
2022/07/24 02:22:04;;;;;;;;;;;;;;;28.17;38.46;100674.00;5067578;28;985;-46
2022/07/24 02:24:30;;;;;;;;;;;;;;;28.28;38.25;100680.75;5073993;28;1100;-48
2022/07/24 02:26:55;;;;;;;;;;;;;;;28.21;38.38;100679.88;5071308;28;1020;-46
2022/07/24 02:29:20;;;;;;;;;;;;;;;28.22;38.25;100681.53;5075522;28;1186;-47
2022/07/24 02:31:46;;;;;;;;;;;;;;;28.19;38.05;100679.22;5077111;28;1009;-45
2022/07/24 02:34:11;;;;;;;;;;;;;;;28.15;38.71;100673.34;5074982;28;1963;-45
2022/07/24 02:36:37;;;;;;;;;;;;;;;28.25;38.23;100673.03;5060792;28;1048;-45
2022/07/24 02:39:03;;;;;;;;;;;;;;;28.19;38.38;100669.25;5065259;28;969;-46
2022/07/24 02:41:28;;;;;;;;;;;;;;;28.16;38.53;100676.91;5068407;28;1009;-46
2022/07/24 02:43:54;;;;;;;;;;;;;;;28.20;37.80;100670.06;5073894;28;965;-46
2022/07/24 02:46:19;;;;;;;;;;;;;;;28.31;37.52;100668.75;5063632;28;1156;-46
2022/07/24 02:48:44;;;;;;;;;;;;;;;28.31;37.25;100663.31;5074918;28;1068;-46
2022/07/24 02:51:10;;;;;;;;;;;;;;;28.33;37.16;100659.41;5070220;28;1143;-46
2022/07/24 02:53:35;;;;;;;;;;;;;;;28.24;37.82;100661.38;5076447;28;1902;-46
2022/07/24 02:56:00;;;;;;;;;;;;;;;28.30;37.26;100661.63;5075672;28;957;-47
2022/07/24 02:58:26;;;;;;;;;;;;;;;28.23;37.32;100664.28;5076757;28;1151;-47
2022/07/24 03:00:51;;;;;;;;;;;;;;;28.26;37.39;100663.06;5072184;28;1056;-46
2022/07/24 03:03:16;;;;;;;;;;;;;;;28.29;37.30;100657.25;5060759;28;970;-46
2022/07/24 03:05:42;;;;;;;;;;;;;;;28.26;37.74;100657.66;5070679;28;980;-46
2022/07/24 03:08:07;;;;;;;;;;;;;;;28.35;37.19;100656.50;5070459;28;1060;-46
2022/07/24 03:10:32;;;;;;;;;;;;;;;28.21;37.67;100656.34;5070130;28;1174;-45
2022/07/24 03:12:57;;;;;;;;;;;;;;;28.25;37.46;100654.09;5056519;28;1016;-46
2022/07/24 03:15:23;;;;;;;;;;;;;;;28.27;37.05;100646.66;5067408;28;1910;-45
2022/07/24 03:17:51;;;;;;;;;;;;;;;28.29;36.98;100655.41;5074573;28;1176;-45
2022/07/24 03:20:17;;;;;;;;;;;;;;;28.30;36.86;100650.81;5065701;28;1214;-46
2022/07/24 03:22:43;;;;;;;;;;;;;;;28.25;37.48;100656.81;5068611;28;981;-45
2022/07/24 03:25:08;;;;;;;;;;;;;;;28.21;37.35;100648.25;5072799;28;961;-45
2022/07/24 03:27:33;;;;;;;;;;;;;;;28.23;37.73;100656.16;5070096;28;1187;-45
2022/07/24 03:29:59;;;;;;;;;;;;;;;28.25;37.00;100654.09;5074920;28;1001;-45
2022/07/24 03:32:24;;;;;;;;;;;;;;;28.30;36.93;100650.81;5074278;28;1162;-46
2022/07/24 03:34:49;;;;;;;;;;;;;;;27.79;37.94;100661.53;5076326;28;1898;-37
2022/07/24 03:37:15;;;;;;;;;;;;;;;27.19;42.24;100653.47;5076535;28;1222;-37
2022/07/24 03:39:40;;;;;;;;;;;;;;;26.88;45.00;100657.94;5060717;28;1210;-36
2022/07/24 03:42:05;;;;;;;;;;;;;;;25.90;45.67;100653.94;5071323;28;1095;-36
2022/07/24 03:44:30;;;;;;;;;;;;;;;26.37;43.82;100649.47;5068127;28;1075;-37
2022/07/24 03:46:56;;;;;;;;;;;;;;;24.92;50.30;100655.75;5072319;28;1025;-36
2022/07/24 03:49:21;;;;;;;;;;;;;;;26.25;44.85;100656.25;5070186;28;1069;-37
2022/07/24 03:51:46;;;;;;;;;;;;;;;26.27;45.52;100654.22;5069240;28;870;-37
2022/07/24 03:54:12;;;;;;;;;;;;;;;26.88;43.88;100655.25;5074171;28;1949;-39
2022/07/24 03:56:37;;;;;;;;;;;;;;;27.32;42.67;100659.03;5065031;28;1354;-40
2022/07/24 03:59:02;;;;;;;;;;;;;;;27.52;42.93;100666.56;5072050;28;1330;-39
2022/07/24 04:01:28;;;;;;;;;;;;;;;27.56;42.57;100662.47;5072860;28;953;-41
2022/07/24 04:03:53;;;;;;;;;;;;;;;27.66;42.74;100664.03;5063633;28;2466;-40
2022/07/24 04:06:18;;;;;;;;;;;;;;;27.61;41.71;100661.91;5064737;28;1778;-40
2022/07/24 04:08:45;;;;;;;;;;;;;;;27.60;41.81;100661.06;5069384;28;2256;-40
2022/07/24 04:11:10;;;;;;;;;;;;;;;27.60;42.39;100668.31;5074291;28;2093;-39
2022/07/24 04:13:35;;;;;;;;;;;;;;;27.72;42.10;100656.06;5071130;28;1898;-39
2022/07/24 04:16:00;;;;;;;;;;;;;;;27.75;41.29;100654.81;5070444;28;2094;-39
2022/07/24 04:18:26;;;;;;;;;;;;;;;27.68;41.04;100656.56;5067785;28;1839;-39
2022/07/24 04:20:51;;;;;;;;;;;;;;;27.69;41.29;100661.00;5061481;28;1168;-39
2022/07/24 04:23:16;;;;;;;;;;;;;;;27.69;41.47;100661.84;5073054;28;1048;-39
2022/07/24 04:25:42;;;;;;;;;;;;;;;27.78;41.88;100656.31;5071337;28;1091;-39
2022/07/24 04:28:07;;;;;;;;;;;;;;;27.82;41.23;100661.16;5075832;28;803;-39
2022/07/24 04:30:32;;;;;;;;;;;;;;;27.70;41.18;100657.25;5057762;28;1203;-39
2022/07/24 04:32:58;;;;;;;;;;;;;;;27.82;42.31;100669.28;5069179;28;1021;-39
2022/07/24 04:35:23;;;;;;;;;;;;;;;27.81;42.44;100655.94;5069207;28;1961;-39
2022/07/24 04:37:48;;;;;;;;;;;;;;;27.81;42.50;100655.94;5063297;28;1087;-39
2022/07/24 04:40:14;;;;;;;;;;;;;;;27.73;41.01;100659.56;5069170;28;882;-40
2022/07/24 04:42:39;;;;;;;;;;;;;;;27.82;41.08;100665.72;5064470;28;985;-39
2022/07/24 04:45:05;;;;;;;;;;;;;;;27.83;41.89;100661.97;5069248;28;1004;-39
2022/07/24 04:47:30;;;;;;;;;;;;;;;27.84;40.48;100664.47;5066739;28;1072;-39
2022/07/24 04:49:55;;;;;;;;;;;;;;;27.80;41.07;100665.91;5069333;28;2747;-39
2022/07/24 04:52:21;;;;;;;;;;;;;;;27.95;40.74;100662.31;5063952;28;977;-40
2022/07/24 04:54:46;;;;;;;;;;;;;;;27.98;41.07;100667.34;5072238;28;1951;-41
2022/07/24 04:57:11;;;;;;;;;;;;;;;27.93;40.89;100661.66;5072511;28;970;-41
2022/07/24 04:59:37;;;;;;;;;;;;;;;27.94;39.60;100661.50;5063290;28;1009;-40
2022/07/24 05:02:02;;;;;;;;;;;;;;;27.97;40.45;100665.69;5066798;28;1142;-40
2022/07/24 05:04:28;;;;;;;;;;;;;;;27.89;40.12;100661.25;5064173;28;992;-39
2022/07/24 05:06:53;;;;;;;;;;;;;;;27.96;39.39;100666.72;5067408;28;1103;-40
2022/07/24 05:09:18;;;;;;;;;;;;;;;27.89;39.86;100665.78;5071618;28;1155;-40
2022/07/24 05:11:44;;;;;;;;;;;;;;;27.89;39.53;100669.34;5071530;28;1190;-40
2022/07/24 05:14:09;;;;;;;;;;;;;;;28.04;38.73;100673.88;5063570;28;1901;-40
2022/07/24 05:16:34;;;;;;;;;;;;;;;27.98;39.02;100673.59;5069338;28;1383;-40
2022/07/24 05:18:59;;;;;;;;;;;;;;;27.91;38.87;100669.97;5070446;28;2498;-40
2022/07/24 05:21:25;;;;;;;;;;;;;;;27.90;37.74;100670.16;5073263;28;1103;-40
2022/07/24 05:23:50;;;;;;;;;;;;;;;27.92;39.04;100665.41;5073292;28;1194;-39
2022/07/24 05:26:15;;;;;;;;;;;;;;;27.96;37.96;100667.53;5062178;28;870;-40
2022/07/24 05:28:41;;;;;;;;;;;;;;;27.98;38.36;100665.47;5050250;28;1052;-40
2022/07/24 05:31:08;;;;;;;;;;;;;;;27.92;38.49;100668.13;5070147;28;1124;-40
2022/07/24 05:33:33;;;;;;;;;;;;;;;28.02;38.40;100665.94;5068707;28;1894;-40
2022/07/24 05:35:58;;;;;;;;;;;;;;;27.89;38.80;100665.78;5066878;28;1028;-40
2022/07/24 05:38:24;;;;;;;;;;;;;;;27.96;38.18;100666.72;5069827;28;1004;-40
2022/07/24 05:40:49;;;;;;;;;;;;;;;27.92;38.30;100668.13;5061784;28;1001;-40
2022/07/24 05:43:16;;;;;;;;;;;;;;;27.87;38.71;100664.13;5071829;28;1017;-40
2022/07/24 05:45:41;;;;;;;;;;;;;;;27.94;37.42;100666.91;5054781;28;1052;-40
2022/07/24 05:48:06;;;;;;;;;;;;;;;27.96;38.23;100664.00;5072350;28;1123;-40
2022/07/24 05:50:32;;;;;;;;;;;;;;;27.91;37.72;100671.84;5070188;28;2789;-41
2022/07/24 05:52:57;;;;;;;;;;;;;;;27.95;37.91;100665.88;5072385;28;1143;-40
2022/07/24 05:55:22;;;;;;;;;;;;;;;27.85;38.40;100668.03;5069247;28;1905;-40
2022/07/24 05:57:48;;;;;;;;;;;;;;;27.97;37.80;100669.22;5076284;28;1025;-40
2022/07/24 06:00:14;;;;;;;;;;;;;;;27.95;38.14;100671.28;5069748;28;989;-42
2022/07/24 06:02:40;;;;;;;;;;;;;;;27.93;37.80;100669.78;5074743;28;1110;-40
2022/07/24 06:05:05;;;;;;;;;;;;;;;28.05;37.68;100665.56;5067469;28;1179;-40
2022/07/24 06:07:30;;;;;;;;;;;;;;;27.98;37.34;100665.47;5075671;28;1040;-40
2022/07/24 06:09:56;;;;;;;;;;;;;;;28.05;37.24;100660.16;5074395;28;1220;-40
2022/07/24 06:12:21;;;;;;;;;;;;;;;27.93;37.68;100656.25;5077510;28;1008;-40
2022/07/24 06:14:46;;;;;;;;;;;;;;;27.95;37.22;100648.81;5077825;28;1910;-41
2022/07/24 06:17:11;;;;;;;;;;;;;;;28.05;37.75;100645.78;5065851;28;914;-39
2022/07/24 06:19:37;;;;;;;;;;;;;;;27.92;37.46;100644.63;5072453;28;2591;-41
2022/07/24 06:22:02;;;;;;;;;;;;;;;28.04;37.30;100644.13;5065556;28;1075;-40
2022/07/24 06:24:27;;;;;;;;;;;;;;;27.97;37.76;100652.16;5072523;28;1068;-41
2022/07/24 06:26:53;;;;;;;;;;;;;;;27.98;37.27;100651.97;5064534;28;962;-40
2022/07/24 06:29:18;;;;;;;;;;;;;;;27.92;37.92;100641.94;5066410;28;977;-41
2022/07/24 06:31:43;;;;;;;;;;;;;;;28.02;37.23;100649.72;5071806;28;1036;-39
2022/07/24 06:34:08;;;;;;;;;;;;;;;28.08;37.33;100653.50;5072655;28;1902;-40
2022/07/24 06:36:34;;;;;;;;;;;;;;;28.04;37.03;100653.09;5054054;28;1283;-40
2022/07/24 06:38:59;;;;;;;;;;;;;;;28.05;36.88;100648.50;5068813;28;1080;-40
2022/07/24 06:41:24;;;;;;;;;;;;;;;28.03;37.66;100647.88;5068765;28;1235;-40
2022/07/24 06:43:50;;;;;;;;;;;;;;;28.06;37.06;100642.88;5070870;28;1251;-42
2022/07/24 06:46:15;;;;;;;;;;;;;;;28.13;37.27;100645.66;5070170;28;1219;-41
2022/07/24 06:48:40;;;;;;;;;;;;;;;28.11;36.76;100648.56;5047292;28;1897;-40
2022/07/24 06:51:05;;;;;;;;;;;;;;;27.99;36.71;100640.13;5068380;28;1274;-41
2022/07/24 06:53:31;;;;;;;;;;;;;;;28.15;36.88;100640.91;5067462;28;1893;-41
2022/07/24 06:55:56;;;;;;;;;;;;;;;28.22;36.70;100628.28;5071671;28;1048;-40
2022/07/24 06:58:22;;;;;;;;;;;;;;;28.03;36.78;100632.47;5068153;28;1178;-40
2022/07/24 07:00:47;;;;;;;;;;;;;;;28.15;36.99;100624.69;5049982;28;1255;-39
2022/07/24 07:03:12;;;;;;;;;;;;;;;28.15;36.49;100624.69;5070457;28;1199;-40
2022/07/24 07:05:38;;;;;;;;;;;;;;;28.19;36.67;100623.28;5068421;28;1215;-40
2022/07/24 07:08:03;;;;;;;;;;;;;;;28.13;37.50;100620.50;5069639;28;1171;-40
2022/07/24 07:10:29;;;;;;;;;;;;;;;28.08;36.88;100618.34;5069156;28;1290;-40
2022/07/24 07:12:54;;;;;;;;;;;;;;;28.09;36.75;100618.16;5067895;28;1401;-40
2022/07/24 07:15:19;;;;;;;;;;;;;;;28.02;36.68;100619.13;5074871;28;1918;-38
2022/07/24 07:17:45;;;;;;;;;;;;;;;27.98;37.04;100618.69;5074988;28;914;-38
2022/07/24 07:20:10;;;;;;;;;;;;;;;27.92;36.88;100617.59;5074455;28;2685;-41
2022/07/24 07:22:35;;;;;;;;;;;;;;;27.99;37.18;100623.88;5071884;28;1198;-39
2022/07/24 07:25:01;;;;;;;;;;;;;;;28.04;37.25;100615.22;5069873;28;1033;-39
2022/07/24 07:27:27;;;;;;;;;;;;;;;27.98;37.05;100621.38;5068290;28;1063;-41
2022/07/24 07:29:52;;;;;;;;;;;;;;;28.13;37.18;100615.09;5067211;28;1250;-41
2022/07/24 07:32:17;;;;;;;;;;;;;;;28.03;36.78;100618.94;5067355;28;1039;-41
2022/07/24 07:34:43;;;;;;;;;;;;;;;28.08;37.02;100615.66;5068265;28;1898;-39
2022/07/24 07:37:08;;;;;;;;;;;;;;;28.06;37.32;100617.75;5070235;28;1273;-40
2022/07/24 07:39:33;;;;;;;;;;;;;;;28.07;36.84;100611.28;5069167;28;1246;-39
2022/07/24 07:41:59;;;;;;;;;;;;;;;28.09;36.63;100609.22;5074117;28;1266;-40
2022/07/24 07:44:24;;;;;;;;;;;;;;;28.10;37.21;100605.50;5068503;28;1321;-40
2022/07/24 07:46:49;;;;;;;;;;;;;;;28.07;36.40;100598.63;5068006;28;1373;-40
2022/07/24 07:49:15;;;;;;;;;;;;;;;28.10;36.47;100600.06;5069146;28;2447;-40
2022/07/24 07:51:40;;;;;;;;;;;;;;;28.08;36.85;100596.72;5069984;28;1231;-40
2022/07/24 07:54:05;;;;;;;;;;;;;;;28.02;36.78;100606.47;5065187;28;1894;-39
2022/07/24 07:56:32;;;;;;;;;;;;;;;28.22;36.40;100605.81;5069042;28;1265;-38
2022/07/24 07:58:57;;;;;;;;;;;;;;;28.19;36.73;100603.50;5068127;28;1246;-38
2022/07/24 08:01:23;;;;;;;;;;;;;;;28.21;36.83;100599.56;5069283;28;1316;-38
2022/07/24 08:03:48;;;;;;;;;;;;;;;28.27;36.44;100594.41;5067789;28;1318;-39
2022/07/24 08:06:13;;;;;;;;;;;;;;;28.14;36.79;100598.69;5063575;28;1266;-38
2022/07/24 08:08:39;;;;;;;;;;;;;;;28.23;36.31;100592.09;5069703;28;1173;-39
2022/07/24 08:11:04;;;;;;;;;;;;;;;28.24;36.34;100598.34;5069026;28;1104;-39
2022/07/24 08:13:29;;;;;;;;;;;;;;;28.14;37.05;100595.13;5068704;28;1969;-39
2022/07/24 08:15:54;;;;;;;;;;;;;;;28.21;36.90;100590.63;5067723;28;1107;-39
2022/07/24 08:18:20;;;;;;;;;;;;;;;28.25;36.42;100586.50;5065494;28;1210;-38
2022/07/24 08:20:45;;;;;;;;;;;;;;;28.22;36.23;100582.31;5071733;28;2754;-38
2022/07/24 08:23:10;;;;;;;;;;;;;;;28.22;36.58;100584.19;5069964;28;1152;-38
2022/07/24 08:25:36;;;;;;;;;;;;;;;28.15;36.26;100585.97;5066674;28;1037;-39
2022/07/24 08:28:01;;;;;;;;;;;;;;;28.22;36.04;100582.31;5067797;28;1195;-39
2022/07/24 08:30:26;;;;;;;;;;;;;;;28.17;36.87;100587.47;5071698;28;1286;-38
2022/07/24 08:32:52;;;;;;;;;;;;;;;28.08;36.12;100581.34;5068508;28;1254;-40
2022/07/24 08:35:17;;;;;;;;;;;;;;;28.20;35.83;100581.66;5067729;28;1906;-41
2022/07/24 08:37:42;;;;;;;;;;;;;;;28.29;36.33;100574.25;5067811;28;1299;-41
2022/07/24 08:40:08;;;;;;;;;;;;;;;28.41;36.11;100579.97;5067463;28;1263;-41
2022/07/24 08:42:34;;;;;;;;;;;;;;;28.42;35.98;100584.38;5068505;28;1281;-40
2022/07/24 08:44:59;;;;;;;;;;;;;;;28.29;36.27;100582.38;5066553;28;1258;-41
2022/07/24 08:47:25;;;;;;;;;;;;;;;28.42;35.74;100583.53;5066211;28;1234;-40
2022/07/24 08:49:51;;;;;;;;;;;;;;;28.42;36.12;100573.56;5067865;28;2496;-39
2022/07/24 08:52:17;;;;;;;;;;;;;;;28.36;36.09;100575.16;5068055;28;1230;-39
2022/07/24 08:54:42;;;;;;;;;;;;;;;28.38;36.02;100582.25;5046221;28;1967;-39
2022/07/24 08:57:07;;;;;;;;;;;;;;;28.46;36.31;100574.81;5066995;28;1183;-38
2022/07/24 08:59:34;;;;;;;;;;;;;;;28.44;36.49;100582.31;5065830;28;1279;-39
2022/07/24 09:02:00;;;;;;;;;;;;;;;28.32;36.01;100575.72;5064553;28;1160;-39
2022/07/24 09:04:44;;;;;;;;;;;;;;;28.33;36.30;100580.13;5066608;28;1234;-41
2022/07/24 09:07:11;;;;;;;;;;;;;;;28.40;36.40;100574.78;5063533;28;981;-39
2022/07/24 09:09:36;;;;;;;;;;;;;;;28.27;36.09;100584.44;5068819;28;1207;-38
2022/07/24 09:12:22;;;;;;;;;;;;;;;28.34;35.72;100576.41;5068350;28;1230;-38
2022/07/24 09:14:47;;;;;;;;;;;;;;;28.31;36.46;100572.16;5066208;28;1963;-39
2022/07/24 09:17:16;;;;;;;;;;;;;;;28.42;36.09;100570.00;5067095;28;1287;-39
2022/07/24 09:20:08;;;;;;;;;;;;;;;28.37;35.84;100567.91;5069778;28;2422;-39
2022/07/24 09:22:37;;;;;;;;;;;;;;;28.22;35.97;100574.19;5069187;28;1795;-39
2022/07/24 09:25:07;;;;;;;;;;;;;;;28.36;36.23;100560.81;5069552;28;1133;-39
2022/07/24 09:27:33;;;;;;;;;;;;;;;28.40;36.33;100562.09;5071850;28;1238;-39
2022/07/24 09:29:58;;;;;;;;;;;;;;;28.43;35.73;100564.41;5070805;28;1218;-38
2022/07/24 09:32:24;;;;;;;;;;;;;;;28.39;36.34;100559.59;5073642;28;1270;-37
2022/07/24 09:34:50;;;;;;;;;;;;;;;28.40;36.59;100559.38;5070399;28;1889;-41
2022/07/24 09:37:16;;;;;;;;;;;;;;;28.29;36.20;100562.59;5067001;28;1247;-41
2022/07/24 09:39:41;;;;;;;;;;;;;;;28.31;36.50;100560.53;5072692;28;1210;-38
2022/07/24 09:42:07;;;;;;;;;;;;;;;28.30;36.79;100553.44;5069153;28;1085;-41
2022/07/24 09:44:32;;;;;;;;;;;;;;;28.35;36.74;100556.44;5071631;28;1298;-40
2022/07/24 09:46:58;;;;;;;;;;;;;;;28.29;36.34;100549.91;5070795;28;1131;-40
2022/07/24 09:49:24;;;;;;;;;;;;;;;28.28;36.30;100559.03;5067856;28;2460;-41
2022/07/24 09:52:04;;;;;;;;;;;;;;;28.32;36.57;100554.94;5072878;28;1293;-41
2022/07/24 09:54:30;;;;;;;;;;;;;;;28.37;36.64;100557.06;5066317;28;1906;-42
2022/07/24 09:57:00;;;;;;;;;;;;;;;28.41;36.28;100561.03;5069425;28;1149;-41
2022/07/24 09:59:26;;;;;;;;;;;;;;;28.39;35.96;100571.25;5052399;28;1299;-39
2022/07/24 10:01:51;;;;;;;;;;;;;;;28.42;36.76;100561.88;5071714;28;1107;-41
2022/07/24 10:04:17;;;;;;;;;;;;;;;28.44;36.86;100563.38;5052525;28;1327;-41
2022/07/24 10:06:42;;;;;;;;;;;;;;;28.50;36.39;100563.59;5073094;28;1249;-41
2022/07/24 10:09:07;;;;;;;;;;;;;;;28.41;36.17;100558.34;5052745;28;1259;-41
2022/07/24 10:11:33;;;;;;;;;;;;;;;28.43;37.03;100558.13;5054913;28;1223;-40
2022/07/24 10:13:58;;;;;;;;;;;;;;;28.46;36.98;100569.41;5054155;28;1964;-40
2022/07/24 10:16:23;;;;;;;;;;;;;;;28.42;36.47;100561.88;5051147;28;1077;-40
2022/07/24 10:18:52;;;;;;;;;;;;;;;28.40;36.22;100563.94;5066533;28;2593;-40
2022/07/24 10:21:19;;;;;;;;;;;;;;;28.43;36.85;100567.09;5070752;28;1139;-41
2022/07/24 10:23:50;;;;;;;;;;;;;;;28.46;36.80;100564.00;5072033;28;1235;-40
2022/07/24 10:26:16;;;;;;;;;;;;;;;28.40;36.48;100562.09;5070126;28;1286;-40
2022/07/24 10:28:42;;;;;;;;;;;;;;;28.34;36.84;100558.28;5051549;28;1132;-40
2022/07/24 10:31:08;;;;;;;;;;;;;;;28.47;37.33;100564.84;5069279;28;1160;-40
2022/07/24 10:33:35;;;;;;;;;;;;;;;28.54;37.00;100548.66;5071169;28;1906;-40
2022/07/24 10:36:00;;;;;;;;;;;;;;;28.50;36.42;100550.91;5068106;28;1227;-40
2022/07/24 10:38:38;;;;;;;;;;;;;;;28.49;36.69;100557.38;5052171;28;1259;-40
2022/07/24 10:41:05;;;;;;;;;;;;;;;28.50;37.14;100561.75;5049495;28;1038;-41
2022/07/24 10:43:30;;;;;;;;;;;;;;;28.51;37.06;100549.88;5052291;28;1215;-41
2022/07/24 10:45:56;;;;;;;;;;;;;;;28.53;36.54;100545.09;5051347;28;1373;-41
2022/07/24 10:48:21;;;;;;;;;;;;;;;28.44;36.88;100543.59;5068789;28;1053;-42
2022/07/24 10:50:58;;;;;;;;;;;;;;;28.44;37.25;100547.16;5066645;28;2908;-42
2022/07/24 10:53:27;;;;;;;;;;;;;;;28.33;37.20;100555.78;5068033;28;1089;-41
2022/07/24 10:55:54;;;;;;;;;;;;;;;28.42;37.10;100551.91;5068898;28;1243;-41
2022/07/24 10:58:21;;;;;;;;;;;;;;;28.46;36.31;100550.47;5069373;28;1101;-42
2022/07/24 11:00:47;;;;;;;;;;;;;;;28.46;36.38;100546.94;5069693;28;1100;-41
2022/07/24 11:03:19;;;;;;;;;;;;;;;28.55;36.93;100551.16;5071584;28;1243;-41
2022/07/24 11:06:05;;;;;;;;;;;;;;;28.49;36.82;100541.13;5071467;28;1076;-41
2022/07/24 11:08:31;;;;;;;;;;;;;;;28.48;37.19;100534.03;5069109;28;1227;-41
2022/07/24 11:10:57;;;;;;;;;;;;;;;28.46;36.92;100533.41;5069769;28;1273;-41
2022/07/24 11:13:32;;;;;;;;;;;;;;;28.40;36.88;100543.16;5069242;28;1329;-41
2022/07/24 11:16:15;;;;;;;;;;;;;;;28.45;37.20;100531.72;5071992;28;1269;-41
2022/07/24 11:18:47;;;;;;;;;;;;;;;28.56;37.12;100538.47;5065787;28;2391;-41
2022/07/24 11:21:12;;;;;;;;;;;;;;;27.72;37.09;100401.19;5070898;28;1238;-41
2022/07/24 11:23:37;;;;;;;;;;;;;;;28.46;37.13;100525.31;5050510;28;1093;-41
2022/07/24 11:26:22;;;;;;;;;;;;;;;28.42;36.98;100530.28;5051220;28;1242;-41
2022/07/24 11:29:05;;;;;;;;;;;;;;;28.41;37.02;100533.19;5069051;28;1144;-42
2022/07/24 11:31:31;;;;;;;;;;;;;;;28.53;37.26;100531.56;5065470;28;1187;-42
2022/07/24 11:33:56;;;;;;;;;;;;;;;28.52;38.02;100535.31;5052693;28;1957;-41
2022/07/24 11:36:22;;;;;;;;;;;;;;;28.57;38.38;100530.16;5051760;28;1271;-41
2022/07/24 11:38:47;;;;;;;;;;;;;;;28.60;37.76;100524.34;5066815;28;1430;-41
2022/07/24 11:41:12;;;;;;;;;;;;;;;28.50;37.53;100528.44;5051568;28;1267;-41
2022/07/24 11:43:50;;;;;;;;;;;;;;;28.39;37.26;100527.13;5067980;28;1238;-41
2022/07/24 11:46:31;;;;;;;;;;;;;;;28.45;37.37;100529.88;5052574;28;1350;-40
2022/07/24 11:49:03;;;;;;;;;;;;;;;28.62;37.87;100534.13;5065146;28;2517;-40
2022/07/24 11:51:28;;;;;;;;;;;;;;;28.58;37.74;100526.41;5069311;28;1230;-40
2022/07/24 11:53:54;;;;;;;;;;;;;;;28.56;37.45;100527.66;5069609;28;1894;-40
2022/07/24 11:56:19;;;;;;;;;;;;;;;28.54;37.25;100522.44;5068110;28;1274;-40
2022/07/24 11:58:44;;;;;;;;;;;;;;;28.55;37.98;100515.13;5068974;28;1243;-40
2022/07/24 12:01:20;;;;;;;;;;;;;;;28.63;37.69;100512.28;5068052;28;1270;-41
2022/07/24 12:03:52;;;;;;;;;;;;;;;28.50;37.61;100515.75;5070186;28;1195;-42
2022/07/24 12:06:18;;;;;;;;;;;;;;;28.43;37.45;100513.00;5069609;28;1318;-41
2022/07/24 12:08:43;;;;;;;;;;;;;;;28.40;37.04;100520.66;5065157;28;1031;-40
2022/07/24 12:11:08;;;;;;;;;;;;;;;28.56;37.54;100516.84;5067568;28;1222;-40
2022/07/24 12:13:34;;;;;;;;;;;;;;;28.52;37.79;100510.13;5068357;28;1909;-40
2022/07/24 12:15:59;;;;;;;;;;;;;;;28.48;37.60;100512.41;5068434;28;1191;-40
2022/07/24 12:18:24;;;;;;;;;;;;;;;28.43;37.73;100504.03;5066955;28;1959;-40
2022/07/24 12:20:50;;;;;;;;;;;;;;;28.57;38.21;100511.22;5067645;28;993;-41
2022/07/24 12:23:15;;;;;;;;;;;;;;;28.49;37.63;100516.78;5066839;28;1227;-40
2022/07/24 12:25:41;;;;;;;;;;;;;;;28.34;37.43;100514.19;5069198;28;1255;-40
2022/07/24 12:28:07;;;;;;;;;;;;;;;28.40;37.55;100504.44;5069227;28;1230;-40
2022/07/24 12:30:33;;;;;;;;;;;;;;;28.48;37.96;100509.69;5065289;28;1290;-41
2022/07/24 12:33:00;;;;;;;;;;;;;;;28.60;37.47;100512.69;5065688;28;1165;-41
2022/07/24 12:35:26;;;;;;;;;;;;;;;28.54;37.41;100516.19;5067772;28;1897;-40
2022/07/24 12:37:52;;;;;;;;;;;;;;;28.52;37.43;100505.56;5069793;28;1297;-40
2022/07/24 12:40:23;;;;;;;;;;;;;;;28.57;37.11;100503.09;5066446;28;1214;-40
2022/07/24 12:42:55;;;;;;;;;;;;;;;28.59;37.98;100502.91;5064988;28;1314;-41